Time;durP1;ratioP1;P1;durP2;ratioP2;P2;SDS_P1;SDS_P2;PMS_P1;PMS_P2;Temp;Humidity;BMP_temperature;BMP_pressure;BME280_temperature;BME280_humidity;BME280_pressure;Samples;Min_cycle;Max_cycle;Signal;HPM_P1;HPM_P2
2023/08/05 00:00:23;;;;;;;0.00;0.00;;;;;;;;;;1734845;28;20233;-79
2023/08/05 00:01:15;;;;;;;0.00;0.00;;;;;;;;;;1736248;28;20687;-80
2023/08/05 00:02:06;;;;;;;0.00;0.00;;;;;;;;;;1734579;28;20219;-80
2023/08/05 00:02:58;;;;;;;0.00;0.00;;;;;;;;;;1736136;28;20204;-79
2023/08/05 00:03:50;;;;;;;0.00;0.00;;;;;;;;;;1735355;28;20207;-79
2023/08/05 00:04:41;;;;;;;0.00;0.00;;;;;;;;;;1734404;28;20239;-79
2023/08/05 00:05:33;;;;;;;0.00;0.00;;;;;;;;;;1731584;28;20315;-79
2023/08/05 00:06:24;;;;;;;0.00;0.00;;;;;;;;;;1732974;28;20330;-78
2023/08/05 00:07:15;;;;;;;0.00;0.00;;;;;;;;;;1732931;28;20216;-79
2023/08/05 00:08:07;;;;;;;0.00;0.00;;;;;;;;;;1732969;28;21075;-79
2023/08/05 00:08:58;;;;;;;0.00;0.00;;;;;;;;;;1733277;28;20335;-79
2023/08/05 00:09:50;;;;;;;0.00;0.00;;;;;;;;;;1732379;28;20334;-79
2023/08/05 00:10:43;;;;;;;0.00;0.00;;;;;;;;;;1733226;28;20248;-79
2023/08/05 00:11:35;;;;;;;0.00;0.00;;;;;;;;;;1733676;28;20217;-78
2023/08/05 00:12:27;;;;;;;0.00;0.00;;;;;;;;;;1734276;28;20688;-78
2023/08/05 00:13:19;;;;;;;0.00;0.00;;;;;;;;;;1732962;28;20253;-78
2023/08/05 00:14:10;;;;;;;0.00;0.00;;;;;;;;;;1734380;28;20275;-79
2023/08/05 00:15:02;;;;;;;0.00;0.00;;;;;;;;;;1734612;28;20234;-78
2023/08/05 00:15:54;;;;;;;0.00;0.00;;;;;;;;;;1733921;28;20235;-78
2023/08/05 00:16:45;;;;;;;0.00;0.00;;;;;;;;;;1734373;28;20207;-78
2023/08/05 00:17:36;;;;;;;0.00;0.00;;;;;;;;;;1734811;28;20543;-78
2023/08/05 00:18:28;;;;;;;0.00;0.00;;;;;;;;;;1734188;28;20203;-78
2023/08/05 00:19:19;;;;;;;0.00;0.00;;;;;;;;;;1734471;28;20235;-78
2023/08/05 00:20:12;;;;;;;0.00;0.00;;;;;;;;;;1733480;28;20672;-78
2023/08/05 00:21:04;;;;;;;0.00;0.00;;;;;;;;;;1733484;28;20251;-78
2023/08/05 00:21:55;;;;;;;0.00;0.00;;;;;;;;;;1732931;28;20208;-78
2023/08/05 00:22:47;;;;;;;0.00;0.00;;;;;;;;;;1734847;28;20238;-78
2023/08/05 00:23:38;;;;;;;0.00;0.00;;;;;;;;;;1734232;28;20274;-78
2023/08/05 00:24:29;;;;;;;0.00;0.00;;;;;;;;;;1734506;28;20206;-78
2023/08/05 00:25:21;;;;;;;0.00;0.00;;;;;;;;;;1732718;28;20195;-78
2023/08/05 00:26:14;;;;;;;0.00;0.00;;;;;;;;;;1735044;28;20271;-78
2023/08/05 00:27:05;;;;;;;0.00;0.00;;;;;;;;;;1734625;28;20333;-78
2023/08/05 00:27:57;;;;;;;0.00;0.00;;;;;;;;;;1734937;28;20204;-78
2023/08/05 00:28:48;;;;;;;0.00;0.00;;;;;;;;;;1730720;28;20378;-78
2023/08/05 00:29:40;;;;;;;0.00;0.00;;;;;;;;;;1733645;28;20581;-78
2023/08/05 00:30:31;;;;;;;0.00;0.00;;;;;;;;;;1733368;28;20619;-78
2023/08/05 00:31:23;;;;;;;0.00;0.00;;;;;;;;;;1734023;28;20312;-78
2023/08/05 00:32:14;;;;;;;0.00;0.00;;;;;;;;;;1734380;28;20311;-78
2023/08/05 00:33:06;;;;;;;0.00;0.00;;;;;;;;;;1734346;28;20355;-78
2023/08/05 00:33:58;;;;;;;0.00;0.00;;;;;;;;;;1730768;28;20273;-78
2023/08/05 00:34:49;;;;;;;0.00;0.00;;;;;;;;;;1734165;28;20258;-78
2023/08/05 00:35:41;;;;;;;0.00;0.00;;;;;;;;;;1732583;28;20668;-79
2023/08/05 00:36:32;;;;;;;0.00;0.00;;;;;;;;;;1732786;28;20302;-79
2023/08/05 00:37:23;;;;;;;0.00;0.00;;;;;;;;;;1733131;28;20290;-78
2023/08/05 00:38:15;;;;;;;0.00;0.00;;;;;;;;;;1732807;28;20224;-79
2023/08/05 00:39:06;;;;;;;0.00;0.00;;;;;;;;;;1733430;28;20307;-79
2023/08/05 00:39:57;;;;;;;0.00;0.00;;;;;;;;;;1732919;28;20301;-79
2023/08/05 00:40:49;;;;;;;0.00;0.00;;;;;;;;;;1732128;28;20231;-78
2023/08/05 00:41:42;;;;;;;0.00;0.00;;;;;;;;;;1732704;28;20246;-78
2023/08/05 00:42:34;;;;;;;0.00;0.00;;;;;;;;;;1732838;28;20208;-79
2023/08/05 00:43:25;;;;;;;0.00;0.00;;;;;;;;;;1732542;28;20282;-79
2023/08/05 00:44:16;;;;;;;0.00;0.00;;;;;;;;;;1732614;28;20206;-79
2023/08/05 00:45:08;;;;;;;0.00;0.00;;;;;;;;;;1733161;28;20207;-79
2023/08/05 00:46:00;;;;;;;0.00;0.00;;;;;;;;;;1732481;28;20700;-78
2023/08/05 00:46:52;;;;;;;0.00;0.00;;;;;;;;;;1733658;28;20199;-78
2023/08/05 00:47:44;;;;;;;0.00;0.00;;;;;;;;;;1734506;28;20249;-78
2023/08/05 00:48:35;;;;;;;0.00;0.00;;;;;;;;;;1733250;28;20238;-78
2023/08/05 00:49:26;;;;;;;0.00;0.00;;;;;;;;;;1734153;28;20629;-78
2023/08/05 00:50:18;;;;;;;0.00;0.00;;;;;;;;;;1732383;28;20206;-78
2023/08/05 00:51:10;;;;;;;0.00;0.00;;;;;;;;;;1733658;28;20243;-78
2023/08/05 00:52:01;;;;;;;0.00;0.00;;;;;;;;;;1733700;28;20204;-78
2023/08/05 00:52:53;;;;;;;0.00;0.00;;;;;;;;;;1733805;28;20262;-78
2023/08/05 00:53:44;;;;;;;0.00;0.00;;;;;;;;;;1733458;28;20633;-78
2023/08/05 00:54:35;;;;;;;0.00;0.00;;;;;;;;;;1733911;28;20302;-78
2023/08/05 00:55:28;;;;;;;0.00;0.00;;;;;;;;;;1732531;28;20196;-79
2023/08/05 00:56:19;;;;;;;0.00;0.00;;;;;;;;;;1732573;28;20277;-78
2023/08/05 00:57:13;;;;;;;0.00;0.00;;;;;;;;;;1732376;28;20211;-79
2023/08/05 00:58:04;;;;;;;0.00;0.00;;;;;;;;;;1734511;28;20284;-79
2023/08/05 00:58:55;;;;;;;0.00;0.00;;;;;;;;;;1733938;28;20414;-78
2023/08/05 00:59:47;;;;;;;0.00;0.00;;;;;;;;;;1733081;28;20199;-79
2023/08/05 01:00:38;;;;;;;0.00;0.00;;;;;;;;;;1733443;28;20666;-78
2023/08/05 01:01:29;;;;;;;0.00;0.00;;;;;;;;;;1734772;28;20290;-78
2023/08/05 01:02:21;;;;;;;0.00;0.00;;;;;;;;;;1735045;28;20211;-78
2023/08/05 01:03:12;;;;;;;0.00;0.00;;;;;;;;;;1733194;28;20242;-78
2023/08/05 01:04:05;;;;;;;0.00;0.00;;;;;;;;;;1735406;28;20211;-78
2023/08/05 01:04:56;;;;;;;0.00;0.00;;;;;;;;;;1732783;28;20309;-78
2023/08/05 01:05:48;;;;;;;0.00;0.00;;;;;;;;;;1730526;28;20746;-79
2023/08/05 01:06:41;;;;;;;0.00;0.00;;;;;;;;;;1732549;28;20203;-79
2023/08/05 01:07:32;;;;;;;0.00;0.00;;;;;;;;;;1732734;28;20238;-79
2023/08/05 01:08:23;;;;;;;0.00;0.00;;;;;;;;;;1732432;28;20214;-79
2023/08/05 01:09:15;;;;;;;0.00;0.00;;;;;;;;;;1732736;28;20222;-79
2023/08/05 01:10:07;;;;;;;0.00;0.00;;;;;;;;;;1733182;28;20645;-79
2023/08/05 01:11:00;;;;;;;0.00;0.00;;;;;;;;;;1734204;28;20591;-78
2023/08/05 01:11:51;;;;;;;0.00;0.00;;;;;;;;;;1735555;28;20913;-78
2023/08/05 01:12:43;;;;;;;0.00;0.00;;;;;;;;;;1735379;28;20204;-78
2023/08/05 01:13:36;;;;;;;0.00;0.00;;;;;;;;;;1734725;28;20239;-78
2023/08/05 01:14:28;;;;;;;0.00;0.00;;;;;;;;;;1735129;28;20235;-78
2023/08/05 01:15:20;;;;;;;0.00;0.00;;;;;;;;;;1734456;28;20283;-78
2023/08/05 01:16:11;;;;;;;0.00;0.00;;;;;;;;;;1734605;28;20280;-78
2023/08/05 01:17:03;;;;;;;0.00;0.00;;;;;;;;;;1735819;28;20818;-78
2023/08/05 01:17:55;;;;;;;0.00;0.00;;;;;;;;;;1735353;28;20213;-78
2023/08/05 01:18:47;;;;;;;0.00;0.00;;;;;;;;;;1733435;28;20254;-79
2023/08/05 01:19:38;;;;;;;0.00;0.00;;;;;;;;;;1734430;28;20226;-78
2023/08/05 01:20:34;;;;;;;0.00;0.00;;;;;;;;;;1733917;28;20262;-78
2023/08/05 01:21:31;;;;;;;0.00;0.00;;;;;;;;;;1734992;28;20313;-78
2023/08/05 01:22:26;;;;;;;0.00;0.00;;;;;;;;;;1734935;28;20194;-78
2023/08/05 01:23:19;;;;;;;0.00;0.00;;;;;;;;;;1734497;28;20227;-78
2023/08/05 01:24:13;;;;;;;0.00;0.00;;;;;;;;;;1735051;28;20326;-78
2023/08/05 01:25:06;;;;;;;0.00;0.00;;;;;;;;;;1731466;28;20203;-78
2023/08/05 01:25:59;;;;;;;0.00;0.00;;;;;;;;;;1733985;28;20235;-78
2023/08/05 01:26:51;;;;;;;0.00;0.00;;;;;;;;;;1734976;28;20917;-78
2023/08/05 01:27:43;;;;;;;0.00;0.00;;;;;;;;;;1735227;28;20241;-79
2023/08/05 01:28:35;;;;;;;0.00;0.00;;;;;;;;;;1732751;28;20329;-79
2023/08/05 01:29:26;;;;;;;0.00;0.00;;;;;;;;;;1733123;28;20272;-77
2023/08/05 01:30:18;;;;;;;0.00;0.00;;;;;;;;;;1733580;28;20203;-79
2023/08/05 01:31:10;;;;;;;0.00;0.00;;;;;;;;;;1733287;28;20250;-79
2023/08/05 01:32:02;;;;;;;0.00;0.00;;;;;;;;;;1731949;28;20207;-78
2023/08/05 01:32:54;;;;;;;0.00;0.00;;;;;;;;;;1732358;28;20601;-78
2023/08/05 01:33:47;;;;;;;0.00;0.00;;;;;;;;;;1732319;28;20912;-78
2023/08/05 01:34:38;;;;;;;0.00;0.00;;;;;;;;;;1732599;28;20207;-78
2023/08/05 01:35:30;;;;;;;0.00;0.00;;;;;;;;;;1732302;28;20719;-78
2023/08/05 01:36:21;;;;;;;0.00;0.00;;;;;;;;;;1733300;28;20216;-79
2023/08/05 01:37:13;;;;;;;0.00;0.00;;;;;;;;;;1735716;28;20283;-81
2023/08/05 01:38:04;;;;;;;0.00;0.00;;;;;;;;;;1737562;28;20349;-80
2023/08/05 01:38:55;;;;;;;0.00;0.00;;;;;;;;;;1734184;28;20671;-80
2023/08/05 01:39:47;;;;;;;0.00;0.00;;;;;;;;;;1735499;28;20564;-80
2023/08/05 01:40:38;;;;;;;0.00;0.00;;;;;;;;;;1732032;28;20254;-80
2023/08/05 01:41:31;;;;;;;0.00;0.00;;;;;;;;;;1736594;28;20188;-80
2023/08/05 01:42:23;;;;;;;0.00;0.00;;;;;;;;;;1738238;28;20541;-80
2023/08/05 01:43:14;;;;;;;0.00;0.00;;;;;;;;;;1737720;28;20531;-80
2023/08/05 01:44:05;;;;;;;0.00;0.00;;;;;;;;;;1738311;28;20203;-80
2023/08/05 01:44:57;;;;;;;0.00;0.00;;;;;;;;;;1737704;28;20208;-80
2023/08/05 01:45:48;;;;;;;0.00;0.00;;;;;;;;;;1733606;28;20748;-81
2023/08/05 01:46:40;;;;;;;0.00;0.00;;;;;;;;;;1734150;28;20223;-80
2023/08/05 01:47:31;;;;;;;0.00;0.00;;;;;;;;;;1734476;28;20238;-80
2023/08/05 01:48:23;;;;;;;0.00;0.00;;;;;;;;;;1733985;28;20207;-80
2023/08/05 01:49:14;;;;;;;0.00;0.00;;;;;;;;;;1729344;28;20358;-80
2023/08/05 01:50:05;;;;;;;0.00;0.00;;;;;;;;;;1734561;28;20231;-80
2023/08/05 01:50:57;;;;;;;0.00;0.00;;;;;;;;;;1732800;28;20239;-81
2023/08/05 01:51:49;;;;;;;0.00;0.00;;;;;;;;;;1732644;28;20231;-80
2023/08/05 01:52:40;;;;;;;0.00;0.00;;;;;;;;;;1734477;28;20235;-80
2023/08/05 01:53:32;;;;;;;0.00;0.00;;;;;;;;;;1732577;28;20235;-80
2023/08/05 01:54:23;;;;;;;0.00;0.00;;;;;;;;;;1734557;28;20246;-81
2023/08/05 01:55:15;;;;;;;0.00;0.00;;;;;;;;;;1734187;28;20203;-80
2023/08/05 01:56:06;;;;;;;0.00;0.00;;;;;;;;;;1737396;28;20289;-79
2023/08/05 01:56:58;;;;;;;0.00;0.00;;;;;;;;;;1736785;28;20271;-80
2023/08/05 01:57:50;;;;;;;0.00;0.00;;;;;;;;;;1737387;28;20318;-80
2023/08/05 01:58:41;;;;;;;0.00;0.00;;;;;;;;;;1736561;28;20281;-80
2023/08/05 01:59:33;;;;;;;0.00;0.00;;;;;;;;;;1736953;28;20250;-79
2023/08/05 02:00:24;;;;;;;0.00;0.00;;;;;;;;;;1733940;28;20239;-80
2023/08/05 02:01:15;;;;;;;0.00;0.00;;;;;;;;;;1733820;28;20617;-80
2023/08/05 02:02:08;;;;;;;0.00;0.00;;;;;;;;;;1732850;28;20350;-81
2023/08/05 02:02:59;;;;;;;0.00;0.00;;;;;;;;;;1734236;28;20322;-80
2023/08/05 02:03:50;;;;;;;0.00;0.00;;;;;;;;;;1734075;28;20739;-80
2023/08/05 02:04:42;;;;;;;0.00;0.00;;;;;;;;;;1733560;28;20296;-80
2023/08/05 02:05:33;;;;;;;0.00;0.00;;;;;;;;;;1734655;28;20199;-80
2023/08/05 02:06:24;;;;;;;0.00;0.00;;;;;;;;;;1736790;28;20198;-80
2023/08/05 02:07:16;;;;;;;0.00;0.00;;;;;;;;;;1737009;28;20205;-80
2023/08/05 02:08:07;;;;;;;0.00;0.00;;;;;;;;;;1736330;28;20239;-80
2023/08/05 02:08:58;;;;;;;0.00;0.00;;;;;;;;;;1736234;28;20204;-79
2023/08/05 02:09:50;;;;;;;0.00;0.00;;;;;;;;;;1735959;28;20204;-79
2023/08/05 02:10:42;;;;;;;0.00;0.00;;;;;;;;;;1733519;28;20644;-79
2023/08/05 02:11:34;;;;;;;0.00;0.00;;;;;;;;;;1733705;28;20180;-80
2023/08/05 02:12:26;;;;;;;0.00;0.00;;;;;;;;;;1734147;28;20231;-79
2023/08/05 02:13:18;;;;;;;0.00;0.00;;;;;;;;;;1733606;28;20471;-80
2023/08/05 02:14:09;;;;;;;0.00;0.00;;;;;;;;;;1733932;28;20346;-80
2023/08/05 02:15:00;;;;;;;0.00;0.00;;;;;;;;;;1733449;28;20207;-80
2023/08/05 02:15:52;;;;;;;0.00;0.00;;;;;;;;;;1733144;28;20242;-80
2023/08/05 02:16:43;;;;;;;0.00;0.00;;;;;;;;;;1733416;28;20258;-80
2023/08/05 02:17:35;;;;;;;0.00;0.00;;;;;;;;;;1734017;28;20625;-80
2023/08/05 02:18:26;;;;;;;0.00;0.00;;;;;;;;;;1733475;28;20660;-80
2023/08/05 02:19:18;;;;;;;0.00;0.00;;;;;;;;;;1729231;28;20204;-79
2023/08/05 02:20:10;;;;;;;0.00;0.00;;;;;;;;;;1734125;28;20258;-79
2023/08/05 02:21:01;;;;;;;0.00;0.00;;;;;;;;;;1732908;28;20876;-80
2023/08/05 02:21:53;;;;;;;0.00;0.00;;;;;;;;;;1733363;28;20203;-80
2023/08/05 02:22:44;;;;;;;0.00;0.00;;;;;;;;;;1734103;28;20271;-80
2023/08/05 02:23:35;;;;;;;0.00;0.00;;;;;;;;;;1732336;28;20200;-80
2023/08/05 02:24:27;;;;;;;0.00;0.00;;;;;;;;;;1733757;28;20249;-78
2023/08/05 02:25:18;;;;;;;0.00;0.00;;;;;;;;;;1733608;28;20688;-78
2023/08/05 02:26:09;;;;;;;0.00;0.00;;;;;;;;;;1737049;28;20230;-79
2023/08/05 02:27:01;;;;;;;0.00;0.00;;;;;;;;;;1737430;28;20685;-80
2023/08/05 02:27:54;;;;;;;0.00;0.00;;;;;;;;;;1737514;28;20606;-79
2023/08/05 02:28:45;;;;;;;0.00;0.00;;;;;;;;;;1737512;28;20757;-79
2023/08/05 02:29:37;;;;;;;0.00;0.00;;;;;;;;;;1737292;28;20214;-79
2023/08/05 02:30:28;;;;;;;0.00;0.00;;;;;;;;;;1733652;28;20234;-79
2023/08/05 02:31:19;;;;;;;0.00;0.00;;;;;;;;;;1733180;28;20242;-79
2023/08/05 02:32:11;;;;;;;0.00;0.00;;;;;;;;;;1731767;28;20233;-78
2023/08/05 02:33:03;;;;;;;0.00;0.00;;;;;;;;;;1732341;28;20250;-79
2023/08/05 02:33:55;;;;;;;0.00;0.00;;;;;;;;;;1733731;28;20694;-79
2023/08/05 02:34:46;;;;;;;0.00;0.00;;;;;;;;;;1733261;28;20258;-78
2023/08/05 02:35:38;;;;;;;0.00;0.00;;;;;;;;;;1734286;28;20242;-79
2023/08/05 02:36:29;;;;;;;0.00;0.00;;;;;;;;;;1736007;28;20192;-79
2023/08/05 02:37:20;;;;;;;0.00;0.00;;;;;;;;;;1736056;28;20210;-79
2023/08/05 02:38:12;;;;;;;0.00;0.00;;;;;;;;;;1735547;28;20207;-79
2023/08/05 02:39:03;;;;;;;0.00;0.00;;;;;;;;;;1736337;28;20309;-78
2023/08/05 02:39:54;;;;;;;0.00;0.00;;;;;;;;;;1735580;28;20525;-79
2023/08/05 02:40:46;;;;;;;0.00;0.00;;;;;;;;;;1732411;28;20242;-79
2023/08/05 02:41:37;;;;;;;0.00;0.00;;;;;;;;;;1735506;28;20276;-78
2023/08/05 02:42:28;;;;;;;0.00;0.00;;;;;;;;;;1735891;28;20203;-79
2023/08/05 02:43:22;;;;;;;0.00;0.00;;;;;;;;;;1733754;28;20203;-79
2023/08/05 02:44:14;;;;;;;0.00;0.00;;;;;;;;;;1735431;28;20566;-78
2023/08/05 02:45:07;;;;;;;0.00;0.00;;;;;;;;;;1734439;28;20302;-78
2023/08/05 02:45:58;;;;;;;0.00;0.00;;;;;;;;;;1733801;28;20734;-79
2023/08/05 02:46:50;;;;;;;0.00;0.00;;;;;;;;;;1733635;28;20200;-78
2023/08/05 02:47:41;;;;;;;0.00;0.00;;;;;;;;;;1734151;28;20203;-79
2023/08/05 02:48:33;;;;;;;0.00;0.00;;;;;;;;;;1733069;28;20226;-78
2023/08/05 02:49:24;;;;;;;0.00;0.00;;;;;;;;;;1734093;28;20545;-79
2023/08/05 02:50:15;;;;;;;0.00;0.00;;;;;;;;;;1733091;28;20210;-79
2023/08/05 02:51:07;;;;;;;0.00;0.00;;;;;;;;;;1732875;28;20943;-78
2023/08/05 02:51:58;;;;;;;0.00;0.00;;;;;;;;;;1731417;28;20203;-79
2023/08/05 02:52:49;;;;;;;0.00;0.00;;;;;;;;;;1733483;28;20211;-78
2023/08/05 02:53:42;;;;;;;0.00;0.00;;;;;;;;;;1732210;28;20238;-78
2023/08/05 02:54:33;;;;;;;0.00;0.00;;;;;;;;;;1733535;28;20323;-79
2023/08/05 02:55:25;;;;;;;0.00;0.00;;;;;;;;;;1731464;28;20231;-77
2023/08/05 02:56:16;;;;;;;0.00;0.00;;;;;;;;;;1727529;28;20300;-78
2023/08/05 02:57:08;;;;;;;0.00;0.00;;;;;;;;;;1734411;28;20208;-78
2023/08/05 02:57:59;;;;;;;0.00;0.00;;;;;;;;;;1733508;28;20740;-77
2023/08/05 02:58:52;;;;;;;0.00;0.00;;;;;;;;;;1733926;28;20230;-78
2023/08/05 02:59:44;;;;;;;0.00;0.00;;;;;;;;;;1734109;28;20207;-77
2023/08/05 03:00:35;;;;;;;0.00;0.00;;;;;;;;;;1733001;28;20280;-79
2023/08/05 03:01:27;;;;;;;0.00;0.00;;;;;;;;;;1732588;28;20573;-79
2023/08/05 03:02:18;;;;;;;0.00;0.00;;;;;;;;;;1732732;28;20298;-79
2023/08/05 03:03:09;;;;;;;0.00;0.00;;;;;;;;;;1728332;28;20201;-78
2023/08/05 03:04:01;;;;;;;0.00;0.00;;;;;;;;;;1733091;28;20196;-78
2023/08/05 03:04:52;;;;;;;0.00;0.00;;;;;;;;;;1732564;28;20306;-78
2023/08/05 03:05:43;;;;;;;0.00;0.00;;;;;;;;;;1732587;28;20224;-78
2023/08/05 03:06:35;;;;;;;0.00;0.00;;;;;;;;;;1733895;28;20604;-78
2023/08/05 03:07:27;;;;;;;0.00;0.00;;;;;;;;;;1734454;28;20719;-78
2023/08/05 03:08:19;;;;;;;0.00;0.00;;;;;;;;;;1733176;28;20383;-78
2023/08/05 03:09:10;;;;;;;0.00;0.00;;;;;;;;;;1734242;28;20301;-78
2023/08/05 03:10:03;;;;;;;0.00;0.00;;;;;;;;;;1732706;28;20207;-78
2023/08/05 03:10:59;;;;;;;0.00;0.00;;;;;;;;;;1732332;28;20231;-79
2023/08/05 03:11:50;;;;;;;0.00;0.00;;;;;;;;;;1733126;28;20246;-78
2023/08/05 03:12:41;;;;;;;0.00;0.00;;;;;;;;;;1733512;28;20226;-79
2023/08/05 03:13:33;;;;;;;0.00;0.00;;;;;;;;;;1733180;28;20518;-79
2023/08/05 03:14:25;;;;;;;0.00;0.00;;;;;;;;;;1733066;28;20673;-78
2023/08/05 03:15:17;;;;;;;0.00;0.00;;;;;;;;;;1733611;28;20212;-78
2023/08/05 03:16:09;;;;;;;0.00;0.00;;;;;;;;;;1733780;28;20326;-78
2023/08/05 03:17:00;;;;;;;0.00;0.00;;;;;;;;;;1733929;28;20262;-77
2023/08/05 03:17:52;;;;;;;0.00;0.00;;;;;;;;;;1733992;28;20204;-78
2023/08/05 03:18:43;;;;;;;0.00;0.00;;;;;;;;;;1733548;28;20669;-77
2023/08/05 03:19:35;;;;;;;0.00;0.00;;;;;;;;;;1734886;28;20199;-78
2023/08/05 03:20:27;;;;;;;0.00;0.00;;;;;;;;;;1732959;28;20242;-77
2023/08/05 03:21:19;;;;;;;0.00;0.00;;;;;;;;;;1734310;28;20187;-77
2023/08/05 03:22:10;;;;;;;0.00;0.00;;;;;;;;;;1734941;28;20242;-78
2023/08/05 03:23:01;;;;;;;0.00;0.00;;;;;;;;;;1733367;28;20503;-78
2023/08/05 03:23:53;;;;;;;0.00;0.00;;;;;;;;;;1734129;28;20253;-78
2023/08/05 03:24:44;;;;;;;0.00;0.00;;;;;;;;;;1733029;28;20245;-78
2023/08/05 03:25:35;;;;;;;0.00;0.00;;;;;;;;;;1732575;28;20269;-77
2023/08/05 03:26:27;;;;;;;0.00;0.00;;;;;;;;;;1733094;28;20251;-77
2023/08/05 03:27:18;;;;;;;0.00;0.00;;;;;;;;;;1733653;28;20701;-77
2023/08/05 03:28:10;;;;;;;0.00;0.00;;;;;;;;;;1728351;28;20212;-77
2023/08/05 03:29:01;;;;;;;0.00;0.00;;;;;;;;;;1732009;28;20254;-78
2023/08/05 03:29:55;;;;;;;0.00;0.00;;;;;;;;;;1732999;28;20541;-76
2023/08/05 03:30:46;;;;;;;0.00;0.00;;;;;;;;;;1731872;28;20273;-77
2023/08/05 03:31:38;;;;;;;0.00;0.00;;;;;;;;;;1732949;28;20231;-77
2023/08/05 03:32:29;;;;;;;0.00;0.00;;;;;;;;;;1733175;28;20231;-77
2023/08/05 03:33:21;;;;;;;0.00;0.00;;;;;;;;;;1732355;28;20637;-77
2023/08/05 03:34:12;;;;;;;0.00;0.00;;;;;;;;;;1733440;28;20259;-76
2023/08/05 03:35:03;;;;;;;0.00;0.00;;;;;;;;;;1732942;28;20587;-77
2023/08/05 03:35:56;;;;;;;0.00;0.00;;;;;;;;;;1732147;28;20223;-77
2023/08/05 03:36:48;;;;;;;0.00;0.00;;;;;;;;;;1732405;28;20207;-78
2023/08/05 03:37:39;;;;;;;0.00;0.00;;;;;;;;;;1730349;28;20204;-77
2023/08/05 03:38:30;;;;;;;0.00;0.00;;;;;;;;;;1730382;28;20282;-77
2023/08/05 03:39:22;;;;;;;0.00;0.00;;;;;;;;;;1732927;28;20637;-78
2023/08/05 03:40:13;;;;;;;0.00;0.00;;;;;;;;;;1732344;28;20530;-79
2023/08/05 03:41:04;;;;;;;0.00;0.00;;;;;;;;;;1732276;28;20231;-78
2023/08/05 03:41:56;;;;;;;0.00;0.00;;;;;;;;;;1731877;28;20218;-78
2023/08/05 03:42:47;;;;;;;0.00;0.00;;;;;;;;;;1729982;28;20641;-78
2023/08/05 03:43:38;;;;;;;0.00;0.00;;;;;;;;;;1732606;28;20290;-78
2023/08/05 03:44:30;;;;;;;0.00;0.00;;;;;;;;;;1733133;28;20286;-79
2023/08/05 03:45:23;;;;;;;0.00;0.00;;;;;;;;;;1731993;28;20224;-79
2023/08/05 03:46:14;;;;;;;0.00;0.00;;;;;;;;;;1733596;28;20294;-79
2023/08/05 03:47:06;;;;;;;0.00;0.00;;;;;;;;;;1733233;28;20206;-79
2023/08/05 03:47:57;;;;;;;0.00;0.00;;;;;;;;;;1733229;28;20219;-79
2023/08/05 03:48:49;;;;;;;0.00;0.00;;;;;;;;;;1732267;28;20270;-79
2023/08/05 03:49:40;;;;;;;0.00;0.00;;;;;;;;;;1726874;28;20197;-77
2023/08/05 03:50:32;;;;;;;0.00;0.00;;;;;;;;;;1728626;28;20755;-77
2023/08/05 03:51:23;;;;;;;0.00;0.00;;;;;;;;;;1729240;28;20315;-77
2023/08/05 03:52:15;;;;;;;0.00;0.00;;;;;;;;;;1733399;28;20206;-77
2023/08/05 03:53:06;;;;;;;0.00;0.00;;;;;;;;;;1727239;28;20219;-77
2023/08/05 03:53:57;;;;;;;0.00;0.00;;;;;;;;;;1736652;28;20234;-79
2023/08/05 03:54:49;;;;;;;0.00;0.00;;;;;;;;;;1737776;28;20199;-78
2023/08/05 03:55:40;;;;;;;0.00;0.00;;;;;;;;;;1729088;28;20241;-77
2023/08/05 03:56:33;;;;;;;0.00;0.00;;;;;;;;;;1732589;28;20196;-77
2023/08/05 03:57:24;;;;;;;0.00;0.00;;;;;;;;;;1734430;28;20299;-79
2023/08/05 03:58:17;;;;;;;0.00;0.00;;;;;;;;;;1734710;28;20210;-79
2023/08/05 03:59:09;;;;;;;0.00;0.00;;;;;;;;;;1735251;28;20542;-79
2023/08/05 04:00:00;;;;;;;0.00;0.00;;;;;;;;;;1733746;28;20644;-79
2023/08/05 04:00:53;;;;;;;0.10;0.10;;;;;;;;;;1732446;28;20293;-77
2023/08/05 04:01:45;;;;;;;0.00;0.00;;;;;;;;;;1732684;28;20208;-78
2023/08/05 04:02:36;;;;;;;0.00;0.00;;;;;;;;;;1729228;28;20234;-77
2023/08/05 04:03:28;;;;;;;0.00;0.00;;;;;;;;;;1725676;28;20212;-77
2023/08/05 04:04:20;;;;;;;0.00;0.00;;;;;;;;;;1724908;28;20192;-77
2023/08/05 04:05:11;;;;;;;0.00;0.00;;;;;;;;;;1727322;28;20693;-77
2023/08/05 04:06:03;;;;;;;0.00;0.00;;;;;;;;;;1730171;28;20251;-78
2023/08/05 04:06:55;;;;;;;0.00;0.00;;;;;;;;;;1729101;28;20199;-78
2023/08/05 04:07:47;;;;;;;0.00;0.00;;;;;;;;;;1735892;28;20227;-78
2023/08/05 04:08:39;;;;;;;0.00;0.00;;;;;;;;;;1735702;28;20207;-78
2023/08/05 04:09:31;;;;;;;0.00;0.00;;;;;;;;;;1733041;28;20608;-77
2023/08/05 04:10:22;;;;;;;0.00;0.00;;;;;;;;;;1731096;28;20203;-76
2023/08/05 04:11:14;;;;;;;0.00;0.00;;;;;;;;;;1727354;28;20192;-77
2023/08/05 04:12:08;;;;;;;0.00;0.00;;;;;;;;;;1731611;28;20687;-77
2023/08/05 04:13:01;;;;;;;0.00;0.00;;;;;;;;;;1731673;28;20203;-77
2023/08/05 04:13:52;;;;;;;0.00;0.00;;;;;;;;;;1732726;28;20204;-78
2023/08/05 04:14:44;;;;;;;0.00;0.00;;;;;;;;;;1732990;28;20223;-78
2023/08/05 04:15:36;;;;;;;0.00;0.00;;;;;;;;;;1733294;28;20269;-78
2023/08/05 04:16:29;;;;;;;0.00;0.00;;;;;;;;;;1734581;28;20231;-78
2023/08/05 04:17:21;;;;;;;0.00;0.00;;;;;;;;;;1741766;28;20297;-78
2023/08/05 04:18:12;;;;;;;0.00;0.00;;;;;;;;;;1734843;28;20537;-78
2023/08/05 04:19:04;;;;;;;0.00;0.00;;;;;;;;;;1734325;28;20215;-78
2023/08/05 04:19:56;;;;;;;0.00;0.00;;;;;;;;;;1735741;28;20348;-78
2023/08/05 04:20:48;;;;;;;0.00;0.00;;;;;;;;;;1738118;28;20239;-78
2023/08/05 04:21:45;;;;;;;0.00;0.00;;;;;;;;;;1735788;28;20206;-78
2023/08/05 04:22:38;;;;;;;0.00;0.00;;;;;;;;;;1736587;28;20199;-78
2023/08/05 04:23:31;;;;;;;0.00;0.00;;;;;;;;;;1734716;28;20204;-78
2023/08/05 04:24:24;;;;;;;0.00;0.00;;;;;;;;;;1736910;28;20206;-78
2023/08/05 04:25:16;;;;;;;0.00;0.00;;;;;;;;;;1735002;28;20609;-78
2023/08/05 04:26:07;;;;;;;0.00;0.00;;;;;;;;;;1735018;28;20270;-78
2023/08/05 04:26:58;;;;;;;0.00;0.00;;;;;;;;;;1736570;28;20585;-79
2023/08/05 04:27:50;;;;;;;0.00;0.00;;;;;;;;;;1738237;28;20310;-79
2023/08/05 04:28:41;;;;;;;0.00;0.00;;;;;;;;;;1736134;28;20240;-79
2023/08/05 04:29:33;;;;;;;0.00;0.00;;;;;;;;;;1736699;28;20199;-79
2023/08/05 04:30:24;;;;;;;0.00;0.00;;;;;;;;;;1734154;28;20257;-79
2023/08/05 04:31:15;;;;;;;0.00;0.00;;;;;;;;;;1733476;28;20203;-79
2023/08/05 04:32:09;;;;;;;0.00;0.00;;;;;;;;;;1732026;28;20238;-79
2023/08/05 04:33:00;;;;;;;0.00;0.00;;;;;;;;;;1732979;28;20213;-79
2023/08/05 04:33:51;;;;;;;0.00;0.00;;;;;;;;;;1733551;28;20712;-79
2023/08/05 04:34:43;;;;;;;0.00;0.00;;;;;;;;;;1732711;28;20301;-79
2023/08/05 04:35:34;;;;;;;0.10;0.10;;;;;;;;;;1734672;28;20235;-79
2023/08/05 04:36:26;;;;;;;0.00;0.00;;;;;;;;;;1737434;28;20286;-79
2023/08/05 04:37:19;;;;;;;0.00;0.00;;;;;;;;;;1740052;28;20596;-80
2023/08/05 04:38:10;;;;;;;0.00;0.00;;;;;;;;;;1737146;28;20606;-79
2023/08/05 04:39:04;;;;;;;0.00;0.00;;;;;;;;;;1737046;28;20607;-79
2023/08/05 04:39:56;;;;;;;0.00;0.00;;;;;;;;;;1736274;28;20228;-79
2023/08/05 04:40:47;;;;;;;0.00;0.00;;;;;;;;;;1732668;28;20301;-79
2023/08/05 04:41:40;;;;;;;0.00;0.00;;;;;;;;;;1732774;28;20585;-79
2023/08/05 04:42:31;;;;;;;0.00;0.00;;;;;;;;;;1733269;28;20234;-79
2023/08/05 04:43:23;;;;;;;0.00;0.00;;;;;;;;;;1733529;28;20600;-80
2023/08/05 04:44:14;;;;;;;0.00;0.00;;;;;;;;;;1732835;28;20227;-79
2023/08/05 04:45:06;;;;;;;0.00;0.00;;;;;;;;;;1732546;28;20847;-78
2023/08/05 04:45:58;;;;;;;0.00;0.00;;;;;;;;;;1731231;28;20262;-78
2023/08/05 04:46:50;;;;;;;0.00;0.00;;;;;;;;;;1731791;28;20273;-79
2023/08/05 04:47:42;;;;;;;0.00;0.00;;;;;;;;;;1732672;28;20231;-78
2023/08/05 04:48:33;;;;;;;0.00;0.00;;;;;;;;;;1735178;28;20672;-78
2023/08/05 04:49:25;;;;;;;0.00;0.00;;;;;;;;;;1739221;28;20294;-78
2023/08/05 04:50:16;;;;;;;0.00;0.00;;;;;;;;;;1732618;28;20203;-78
2023/08/05 04:51:07;;;;;;;0.00;0.00;;;;;;;;;;1727423;28;20240;-79
2023/08/05 04:52:00;;;;;;;0.00;0.00;;;;;;;;;;1725339;28;20210;-79
2023/08/05 04:52:51;;;;;;;0.00;0.00;;;;;;;;;;1725867;28;20531;-79
2023/08/05 04:53:43;;;;;;;0.00;0.00;;;;;;;;;;1725647;28;20208;-78
2023/08/05 04:54:36;;;;;;;0.00;0.00;;;;;;;;;;1725836;28;20315;-77
2023/08/05 04:55:27;;;;;;;0.00;0.00;;;;;;;;;;1725225;28;20229;-78
2023/08/05 04:56:25;;;;;;;0.00;0.00;;;;;;;;;;1727610;28;20185;-78
2023/08/05 04:57:16;;;;;;;0.00;0.00;;;;;;;;;;1727975;28;20204;-78
2023/08/05 04:58:08;;;;;;;0.00;0.00;;;;;;;;;;1728613;28;20572;-78
2023/08/05 04:59:00;;;;;;;0.00;0.00;;;;;;;;;;1731043;28;20208;-78
2023/08/05 04:59:51;;;;;;;0.00;0.00;;;;;;;;;;1731118;28;20243;-78
2023/08/05 05:00:43;;;;;;;0.00;0.00;;;;;;;;;;1730543;28;20272;-78
2023/08/05 05:01:34;;;;;;;0.00;0.00;;;;;;;;;;1733451;28;20199;-80
2023/08/05 05:02:25;;;;;;;0.10;0.10;;;;;;;;;;1732201;28;20200;-80
2023/08/05 05:03:18;;;;;;;0.00;0.00;;;;;;;;;;1730549;28;20212;-80
2023/08/05 05:04:09;;;;;;;0.00;0.00;;;;;;;;;;1731459;28;20247;-79
2023/08/05 05:05:05;;;;;;;0.00;0.00;;;;;;;;;;1730904;28;20260;-79
2023/08/05 05:05:56;;;;;;;0.00;0.00;;;;;;;;;;1725158;28;20569;-80
2023/08/05 05:06:47;;;;;;;0.00;0.00;;;;;;;;;;1725910;28;20323;-79
2023/08/05 05:07:39;;;;;;;0.00;0.00;;;;;;;;;;1726498;28;20204;-79
2023/08/05 05:08:31;;;;;;;0.00;0.00;;;;;;;;;;1726413;28;20331;-79
2023/08/05 05:09:23;;;;;;;0.00;0.00;;;;;;;;;;1726304;28;20623;-80
2023/08/05 05:10:14;;;;;;;0.00;0.00;;;;;;;;;;1726630;28;20219;-79